Time;durP1;ratioP1;P1;durP2;ratioP2;P2;SDS_P1;SDS_P2;PMS_P1;PMS_P2;Temp;Humidity;BMP_temperature;BMP_pressure;BME280_temperature;BME280_humidity;BME280_pressure;Samples;Min_cycle;Max_cycle;Signal;HPM_P1;HPM_P2
2022/10/07 03:54:49;;;;;;;61.33;5.47;;;28.10;72.10;;;;;;5086642;28;20826;-64
2022/10/07 04:00:00;;;;;;;60.85;6.60;;;28.30;59.40;;;;;;5085881;28;20439;-65
2022/10/07 04:02:27;;;;;;;51.92;4.93;;;28.30;91.40;;;;;;5085487;28;20375;-65
2022/10/07 04:04:53;;;;;;;36.00;4.10;;;28.00;63.20;;;;;;5084920;28;20036;-66
2022/10/07 04:07:23;;;;;;;57.35;5.45;;;28.00;60.50;;;;;;5086917;28;20116;-65
2022/10/07 04:09:49;;;;;;;38.08;4.97;;;28.30;85.10;;;;;;5086162;28;20072;-67
2022/10/07 04:12:16;;;;;;;54.38;5.07;;;27.60;87.40;;;;;;5085480;28;20069;-65
2022/10/07 04:14:42;;;;;;;53.25;4.97;;;27.60;64.20;;;;;;5081313;28;20069;-66
2022/10/07 04:17:09;;;;;;;55.45;5.25;;;;;;;;;;5085331;28;20138;-67
2022/10/07 04:19:35;;;;;;;56.42;4.63;;;27.40;64.30;;;;;;5084960;28;20049;-68
2022/10/07 04:22:02;;;;;;;58.92;5.20;;;27.40;65.00;;;;;;5085923;28;20045;-67
2022/10/07 04:24:28;;;;;;;41.28;4.50;;;27.40;65.30;;;;;;5084680;28;20046;-67
2022/10/07 04:26:54;;;;;;;50.10;4.47;;;27.30;65.60;;;;;;5067492;28;20051;-65
2022/10/07 04:29:21;;;;;;;65.32;5.53;;;26.90;65.90;;;;;;5086296;28;20052;-66
2022/10/07 04:31:47;;;;;;;48.38;4.65;;;27.10;66.40;;;;;;5084542;28;20083;-66
2022/10/07 04:34:13;;;;;;;63.20;5.07;;;27.00;67.10;;;;;;5084023;28;20116;-66
2022/10/07 04:36:40;;;;;;;42.97;4.28;;;27.00;67.00;;;;;;5085156;28;20490;-66
2022/10/07 04:39:06;;;;;;;52.65;4.85;;;27.30;66.90;;;;;;5085613;28;20050;-69
2022/10/07 04:41:33;;;;;;;51.13;5.10;;;27.30;66.90;;;;;;5085043;28;20020;-64
2022/10/07 04:43:59;;;;;;;53.58;6.00;;;27.30;66.90;;;;;;5076261;28;20088;-66
2022/10/07 04:46:27;;;;;;;56.35;4.25;;;27.20;66.80;;;;;;5062521;28;20113;-62
2022/10/07 04:48:53;;;;;;;58.25;5.82;;;27.10;67.40;;;;;;5063509;28;20073;-64
2022/10/07 04:51:21;;;;;;;62.40;4.18;;;27.10;67.50;;;;;;5063279;28;20133;-64
2022/10/07 04:53:53;;;;;;;47.70;4.90;;;27.00;68.10;;;;;;5060866;28;20132;-62
2022/10/07 04:56:21;;;;;;;67.80;5.40;;;26.90;68.20;;;;;;5049734;28;20088;-63
2022/10/07 04:58:47;;;;;;;58.53;5.35;;;26.90;68.60;;;;;;5051615;28;20075;-63
2022/10/07 05:01:13;;;;;;;69.82;5.32;;;27.00;68.60;;;;;;5050323;28;20112;-63
2022/10/07 05:03:40;;;;;;;59.13;5.57;;;27.10;68.60;;;;;;5050386;28;20123;-63
2022/10/07 05:06:07;;;;;;;56.20;5.15;;;27.20;67.90;;;;;;5050854;28;20175;-62
2022/10/07 05:08:34;;;;;;;73.10;5.35;;;27.20;67.90;;;;;;5051088;28;20119;-62
2022/10/07 05:11:02;;;;;;;65.30;4.82;;;27.20;68.10;;;;;;5051209;28;20104;-62
2022/10/07 05:13:33;;;;;;;59.15;5.38;;;27.20;68.00;;;;;;5051901;28;22007;-63
2022/10/07 05:16:01;;;;;;;89.93;5.55;;;27.30;67.50;;;;;;5051222;28;20092;-63
2022/10/07 05:18:29;;;;;;;56.15;5.45;;;27.30;67.00;;;;;;5051240;28;20075;-65
2022/10/07 05:20:55;;;;;;;69.47;5.40;;;27.20;67.00;;;;;;5050598;28;20088;-65
2022/10/07 05:23:23;;;;;;;74.35;6.07;;;27.20;67.10;;;;;;5050780;28;20498;-65
2022/10/07 05:26:01;;;;;;;70.68;5.95;;;27.30;67.00;;;;;;5049640;28;20455;-65
2022/10/07 05:28:27;;;;;;;62.83;7.38;;;27.20;67.00;;;;;;5050371;28;20083;-64
2022/10/07 05:31:04;;;;;;;57.08;7.28;;;27.30;67.30;;;;;;5051464;28;20146;-65
2022/10/07 05:33:31;;;;;;;59.95;5.75;;;27.30;67.20;;;;;;5032748;28;20124;-63
2022/10/07 05:35:58;;;;;;;59.85;5.97;;;27.20;67.20;;;;;;5016386;28;20088;-63
2022/10/07 05:38:25;;;;;;;79.55;4.85;;;27.20;67.50;;;;;;5050330;28;20081;-65
2022/10/07 05:40:57;;;;;;;62.78;6.15;;;27.20;67.60;;;;;;5050756;28;20073;-65
2022/10/07 05:43:24;;;;;;;74.55;6.28;;;27.10;67.50;;;;;;5049794;28;20507;-65
2022/10/07 05:45:59;;;;;;;62.17;5.40;;;27.10;67.90;;;;;;5051649;28;20109;-65
2022/10/07 05:48:28;;;;;;;44.53;4.75;;;26.90;68.10;;;;;;5047546;28;20149;-63
2022/10/07 05:50:56;;;;;;;52.20;5.15;;;26.90;68.30;;;;;;5050501;28;20076;-64
2022/10/07 05:53:24;;;;;;;51.83;5.90;;;26.80;69.00;;;;;;5048756;28;20104;-63
2022/10/07 05:55:51;;;;;;;44.55;4.85;;;26.70;68.70;;;;;;5049858;28;20072;-64
2022/10/07 05:58:18;;;;;;;40.08;4.85;;;26.70;69.10;;;;;;5050328;28;20126;-64
2022/10/07 06:00:53;;;;;;;44.92;6.13;;;26.70;69.60;;;;;;5049966;28;20157;-65
2022/10/07 06:03:21;;;;;;;46.20;5.72;;;26.60;69.40;;;;;;5049860;28;20076;-64
2022/10/07 06:05:51;;;;;;;49.67;5.93;;;26.60;69.60;;;;;;5049588;28;20086;-64
2022/10/07 06:08:20;;;;;;;42.38;5.90;;;26.50;69.90;;;;;;5049473;28;20069;-65
2022/10/07 06:13:32;;;;;;;45.67;7.00;;;26.30;70.10;;;;;;5050169;28;20570;-66
2022/10/07 06:16:03;;;;;;;29.67;6.90;;;26.30;70.40;;;;;;5050664;28;20086;-66
2022/10/07 06:18:30;;;;;;;32.25;6.63;;;26.30;70.70;;;;;;5049166;28;20118;-64
2022/10/07 06:20:59;;;;;;;45.80;7.47;;;26.40;71.10;;;;;;5049756;28;20076;-63
2022/10/07 06:23:27;;;;;;;51.05;7.32;;;26.40;70.90;;;;;;5049315;28;20080;-63
2022/10/07 06:26:13;;;;;;;47.60;7.57;;;26.40;70.60;;;;;;5049705;28;20079;-64
2022/10/07 06:28:40;;;;;;;41.88;8.05;;;26.30;70.60;;;;;;5049129;28;20096;-65
2022/10/07 06:31:10;;;;;;;37.35;7.18;;;26.30;70.80;;;;;;5049660;28;20433;-63
2022/10/07 06:33:37;;;;;;;37.35;7.78;;;26.20;71.10;;;;;;5049075;28;20089;-63
2022/10/07 06:36:10;;;;;;;35.95;6.97;;;26.20;71.80;;;;;;5049444;28;20090;-64
2022/10/07 06:38:36;;;;;;;44.45;7.97;;;26.20;71.80;;;;;;5049384;28;20088;-63
2022/10/07 06:41:05;;;;;;;41.33;6.95;;;26.30;71.80;;;;;;5049360;28;20066;-66
2022/10/07 06:43:33;;;;;;;31.45;6.68;;;26.20;71.90;;;;;;5048974;28;20085;-63
2022/10/07 06:46:01;;;;;;;35.80;6.60;;;26.10;71.80;;;;;;5049727;28;20090;-64
2022/10/07 06:48:30;;;;;;;35.15;7.13;;;26.00;72.00;;;;;;5048001;28;20100;-64
2022/10/07 06:50:58;;;;;;;36.17;6.50;;;25.90;72.50;;;;;;5047561;28;20532;-65
2022/10/07 06:53:25;;;;;;;38.80;5.40;;;25.80;73.60;;;;;;5048524;28;20464;-64
2022/10/07 06:55:58;;;;;;;41.33;5.57;;;25.80;73.70;;;;;;5048937;28;20064;-65
2022/10/07 06:58:25;;;;;;;31.48;6.03;;;25.80;73.90;;;;;;5048443;28;20094;-65
2022/10/07 07:00:53;;;;;;;33.50;4.75;;;25.70;74.40;;;;;;5048902;28;20120;-64
2022/10/07 07:03:20;;;;;;;28.63;5.20;;;25.70;74.10;;;;;;5049076;28;20638;-64
2022/10/07 07:05:47;;;;;;;27.30;4.53;;;25.70;74.60;;;;;;5048682;28;20075;-64
2022/10/07 07:08:16;;;;;;;23.60;5.18;;;25.70;74.40;;;;;;5031574;28;20080;-64
2022/10/07 07:10:43;;;;;;;41.38;5.32;;;25.60;74.70;;;;;;5049347;28;20100;-63
2022/10/07 07:13:11;;;;;;;34.78;5.07;;;25.60;75.00;;;;;;5030686;28;20085;-64
2022/10/07 07:15:41;;;;;;;25.23;5.03;;;25.70;75.30;;;;;;5049690;28;20142;-65
2022/10/07 07:18:10;;;;;;;33.47;5.50;;;25.70;75.30;;;;;;5047489;28;20486;-63
2022/10/07 07:20:38;;;;;;;30.13;5.22;;;25.60;75.10;;;;;;5048495;28;20072;-65
2022/10/07 07:23:07;;;;;;;35.30;5.13;;;25.60;75.50;;;;;;5030792;28;20455;-64
2022/10/07 07:25:44;;;;;;;41.13;6.18;;;25.50;75.50;;;;;;5047173;28;20105;-64
2022/10/07 07:28:14;;;;;;;30.52;6.18;;;25.40;75.70;;;;;;5030629;28;20096;-63
2022/10/07 07:30:41;;;;;;;41.50;5.50;;;25.40;75.90;;;;;;5048380;28;20103;-64
2022/10/07 07:33:07;;;;;;;37.60;6.13;;;25.40;76.00;;;;;;5047486;28;20087;-65
2022/10/07 07:35:42;;;;;;;34.60;5.78;;;25.30;76.00;;;;;;5048356;28;20069;-63
2022/10/07 07:38:09;;;;;;;44.17;6.28;;;25.30;76.70;;;;;;5047534;28;20822;-65
2022/10/07 07:40:37;;;;;;;47.50;6.85;;;25.40;76.70;;;;;;5049156;28;20451;-64
2022/10/07 07:43:04;;;;;;;42.70;5.97;;;25.40;76.30;;;;;;5048283;28;20033;-64
2022/10/07 07:45:31;;;;;;;33.53;5.50;;;25.40;99.90;;;;;;5047589;28;20074;-61
2022/10/07 07:47:59;;;;;;;35.28;6.13;;;25.50;75.20;;;;;;5049107;28;20118;-63
2022/10/07 07:50:26;;;;;;;42.72;6.80;;;25.40;74.60;;;;;;5048041;28;20043;-65
2022/10/07 07:52:58;;;;;;;36.47;6.13;;;25.30;97.70;;;;;;5047701;28;20655;-65
2022/10/07 07:55:25;;;;;;;37.70;6.32;;;25.10;99.20;;;;;;5045334;28;20025;-62
2022/10/07 07:57:51;;;;;;;29.92;6.03;;;25.30;99.90;;;;;;5047607;28;20064;-64
2022/10/07 08:00:18;;;;;;;36.13;7.18;;;24.80;99.90;;;;;;5048130;28;20066;-64
2022/10/07 08:02:45;;;;;;;32.40;6.28;;;;;;;;;;5048094;28;20029;-65
2022/10/07 08:05:11;;;;;;;42.08;6.80;;;;;;;;;;5029348;28;20053;-63
2022/10/07 08:07:38;;;;;;;48.58;6.63;;;24.80;74.80;;;;;;5046953;28;20388;-64
2022/10/07 08:10:08;;;;;;;27.92;6.20;;;25.20;74.00;;;;;;5047913;28;20469;-64
2022/10/07 08:12:35;;;;;;;40.75;5.82;;;25.30;98.30;;;;;;5049305;28;20071;-63
2022/10/07 08:15:01;;;;;;;35.20;6.03;;;24.90;82.30;;;;;;5048645;28;20075;-63
2022/10/07 08:17:28;;;;;;;40.95;6.18;;;;;;;;;;5048098;28;20041;-65
2022/10/07 08:19:57;;;;;;;52.60;5.72;;;25.30;99.90;;;;;;5047702;28;20070;-63
2022/10/07 08:22:23;;;;;;;37.90;5.32;;;25.40;73.90;;;;;;5047993;28;20027;-62
2022/10/07 08:24:50;;;;;;;26.60;5.65;;;25.20;74.40;;;;;;5048024;28;20074;-66
2022/10/07 08:27:16;;;;;;;38.47;5.43;;;;;;;;;;5029975;28;20040;-61
2022/10/07 08:29:43;;;;;;;34.70;6.05;;;;;;;;;;5049656;28;20125;-61
2022/10/07 08:32:09;;;;;;;37.17;4.97;;;;;;;;;;5051582;28;20077;-66
2022/10/07 08:34:36;;;;;;;31.58;6.07;;;;;;;;;;5051117;28;20021;-63
2022/10/07 08:37:02;;;;;;;45.50;5.85;;;;;;;;;;5051290;28;20093;-63
2022/10/07 08:39:30;;;;;;;37.22;6.88;;;25.10;72.40;;;;;;5051124;28;20459;-65
2022/10/07 08:42:14;;;;;;;48.42;7.38;;;24.90;96.40;;;;;;5051808;28;20096;-65
2022/10/07 08:44:46;;;;;;;39.17;7.22;;;25.10;72.10;;;;;;5051853;28;20415;-63
2022/10/07 08:47:33;;;;;;;46.38;7.00;;;25.20;98.60;;;;;;5051243;28;20495;-65
2022/10/07 08:50:12;;;;;;;43.65;5.60;;;25.50;99.90;;;;;;5050161;28;20487;-65
2022/10/07 08:52:38;;;;;;;34.47;5.30;;;;;;;;;;5050414;28;20025;-64
2022/10/07 08:55:34;;;;;;;40.05;6.05;;;24.70;85.90;;;;;;5049150;28;20086;-65
2022/10/07 08:58:25;;;;;;;39.67;5.80;;;25.20;70.90;;;;;;5043348;28;20078;-63
2022/10/07 09:01:14;;;;;;;34.80;5.90;;;25.20;70.90;;;;;;5050413;28;20124;-64
2022/10/07 09:04:19;;;;;;;49.17;5.72;;;25.60;99.00;;;;;;5050979;28;20137;-65
2022/10/07 09:06:51;;;;;;;38.83;5.70;;;25.80;99.90;;;;;;5014556;28;20198;-64
2022/10/07 09:09:44;;;;;;;42.13;5.82;;;25.20;70.30;;;;;;5051687;28;20576;-64
2022/10/07 09:12:25;;;;;;;43.83;6.28;;;26.70;85.10;;;;;;5051589;28;20039;-65
2022/10/07 09:14:55;;;;;;;40.42;5.80;;;25.30;71.10;;;;;;5048946;28;20114;-64
2022/10/07 09:17:21;;;;;;;37.20;6.00;;;25.30;72.20;;;;;;5051351;28;20077;-63
2022/10/07 09:19:57;;;;;;;30.08;5.25;;;25.60;90.40;;;;;;5051975;28;21776;-65
2022/10/07 09:22:33;;;;;;;38.40;6.32;;;25.40;70.80;;;;;;5051671;28;20050;-63
2022/10/07 09:25:12;;;;;;;;;;;25.30;70.80;;;;;;5051211;28;20064;-65
2022/10/07 09:27:39;;;;;;;27.25;4.93;;;25.20;77.10;;;;;;5050696;28;20460;-64
2022/10/07 09:30:06;;;;;;;37.90;5.93;;;25.60;72.20;;;;;;5051885;28;20051;-65
2022/10/07 09:32:37;;;;;;;54.08;6.35;;;24.90;92.70;;;;;;5051102;28;20510;-65
2022/10/07 09:35:04;;;;;;;49.45;6.03;;;25.10;70.80;;;;;;5051142;28;20051;-66
2022/10/07 09:37:31;;;;;;;48.25;5.78;;;25.50;99.30;;;;;;5051306;28;20051;-63
2022/10/07 09:40:20;;;;;;;39.28;5.60;;;24.90;79.80;;;;;;5050734;28;20042;-65
2022/10/07 09:42:48;;;;;;;47.30;7.18;;;25.50;98.60;;;;;;5050815;28;20137;-65
2022/10/07 09:45:24;;;;;;;40.67;7.43;;;25.20;83.20;;;;;;5034617;28;20074;-65
2022/10/07 09:47:54;;;;;;;46.55;8.57;;;25.40;99.90;;;;;;5050797;28;20065;-64
2022/10/07 09:50:35;;;;;;;51.00;9.55;;;25.00;70.90;;;;;;5051188;28;20122;-63
2022/10/07 09:53:04;;;;;;;55.30;9.93;;;25.10;71.20;;;;;;5050834;28;20083;-63
2022/10/07 09:55:42;;;;;;;50.80;9.75;;;25.00;71.20;;;;;;5050552;28;20060;-64
2022/10/07 09:58:23;;;;;;;54.42;9.32;;;25.00;71.80;;;;;;5050999;28;20058;-65
2022/10/07 10:00:52;;;;;;;57.05;9.60;;;24.90;90.10;;;;;;5050575;28;20136;-64
2022/10/07 10:03:19;;;;;;;62.05;10.73;;;25.00;71.80;;;;;;5050691;28;20418;-63
2022/10/07 10:05:56;;;;;;;52.92;11.40;;;24.80;98.40;;;;;;5050639;28;20134;-64
2022/10/07 10:08:35;;;;;;;76.90;12.98;;;25.30;98.60;;;;;;5049411;28;20454;-65
2022/10/07 10:11:03;;;;;;;73.28;13.32;;;25.20;98.70;;;;;;5047105;28;20393;-63
2022/10/07 10:13:39;;;;;;;77.18;12.73;;;24.70;94.50;;;;;;5050460;28;20526;-64
2022/10/07 10:16:26;;;;;;;56.00;13.70;;;;;;;;;;5050452;28;20074;-66
2022/10/07 10:18:58;;;;;;;68.22;12.95;;;25.20;76.60;;;;;;5049843;28;20036;-63
2022/10/07 10:21:29;;;;;;;67.00;11.15;;;25.00;73.50;;;;;;5050152;28;20463;-63
2022/10/07 10:23:56;;;;;;;73.50;11.30;;;24.90;74.60;;;;;;5049904;28;20095;-62
2022/10/07 10:26:46;;;;;;;56.47;11.75;;;24.70;75.30;;;;;;5049860;28;20080;-61
2022/10/07 10:29:13;;;;;;;51.67;9.70;;;;;;;;;;5049759;28;20033;-64
2022/10/07 10:32:01;;;;;;;44.95;10.65;;;24.80;94.00;;;;;;5050683;28;20025;-64
2022/10/07 10:34:46;;;;;;;50.85;8.75;;;24.60;77.00;;;;;;5049383;28;20032;-63
2022/10/07 10:37:39;;;;;;;48.38;8.27;;;24.50;80.80;;;;;;5049225;28;20487;-65
2022/10/07 10:40:06;;;;;;;58.58;8.98;;;;;;;;;;5049390;28;20444;-63
2022/10/07 10:43:09;;;;;;;53.65;9.43;;;24.50;91.80;;;;;;5049628;28;20391;-64
2022/10/07 10:46:03;;;;;;;42.08;8.88;;;24.40;79.00;;;;;;5048330;28;20940;-64
2022/10/07 10:48:51;;;;;;;41.45;9.18;;;24.30;83.70;;;;;;5049351;28;20050;-63
2022/10/07 10:51:24;;;;;;;44.75;8.55;;;24.30;79.70;;;;;;5031367;28;20563;-63
2022/10/07 10:54:02;;;;;;;55.70;8.90;;;24.50;83.60;;;;;;5048047;28;20116;-63
2022/10/07 10:56:59;;;;;;;40.67;7.95;;;24.00;99.90;;;;;;5050052;28;20067;-63
2022/10/07 11:00:04;;;;;;;63.10;9.32;;;24.50;84.70;;;;;;5048818;28;20107;-64
2022/10/07 11:03:03;;;;;;;50.88;8.20;;;24.40;81.50;;;;;;5049058;28;20032;-63
2022/10/07 11:05:30;;;;;;;43.20;8.35;;;;;;;;;;5025584;28;20036;-64
2022/10/07 13:12:07;;;;;;;55.38;8.82;;;24.30;99.90;;;;;;5110893;27;20510;-62
2022/10/07 13:14:42;;;;;;;;;;;24.50;88.30;;;;;;5084588;27;20041;-61
2022/10/07 13:17:30;;;;;;;45.17;9.32;;;24.70;96.00;;;;;;5069578;28;19996;-62
2022/10/07 13:20:08;;;;;;;48.72;9.10;;;24.30;85.00;;;;;;5072060;28;20098;-62
2022/10/07 13:22:35;;;;;;;62.08;10.00;;;24.20;85.10;;;;;;5074045;28;20039;-62
2022/10/07 13:25:06;;;;;;;47.90;9.27;;;24.10;85.50;;;;;;5089548;28;20068;-61
2022/10/07 13:27:36;;;;;;;49.03;9.98;;;24.20;85.30;;;;;;5071702;28;20214;-60
2022/10/07 13:30:04;;;;;;;45.58;9.23;;;24.20;85.00;;;;;;5083832;28;20103;-62
2022/10/07 13:32:33;;;;;;;42.45;9.10;;;24.20;85.00;;;;;;5047161;28;20074;-64
2022/10/07 13:35:19;;;;;;;52.17;9.10;;;24.10;84.00;;;;;;5056285;28;20170;-64
2022/10/07 13:37:46;;;;;;;51.22;9.55;;;24.20;84.20;;;;;;5069101;28;20068;-63
2022/10/07 13:40:34;;;;;;;57.22;9.10;;;24.10;84.50;;;;;;5081603;28;20112;-63
2022/10/07 13:43:13;;;;;;;45.97;9.63;;;24.10;84.90;;;;;;5080802;27;20083;-65
2022/10/07 13:45:44;;;;;;;57.50;9.48;;;24.10;84.90;;;;;;5064776;28;20096;-61
2022/10/07 13:48:17;;;;;;;50.05;8.82;;;24.10;85.10;;;;;;5073595;28;20075;-62
2022/10/07 13:50:44;;;;;;;57.63;9.85;;;24.10;85.70;;;;;;5061046;28;20146;-63
2022/10/07 13:53:22;;;;;;;50.78;8.75;;;24.00;86.10;;;;;;5070861;28;20526;-64
2022/10/07 13:55:48;;;;;;;38.55;8.40;;;24.00;86.00;;;;;;5069024;27;20183;-62
2022/10/07 13:58:15;;;;;;;36.55;9.18;;;24.00;85.70;;;;;;5073340;28;20074;-60
2022/10/07 14:00:46;;;;;;;41.25;8.60;;;23.90;86.30;;;;;;5074416;28;20090;-60
2022/10/07 14:03:17;;;;;;;42.92;8.15;;;23.90;86.50;;;;;;5044887;28;20077;-63
2022/10/07 14:05:50;;;;;;;45.60;8.27;;;23.90;87.00;;;;;;5077251;28;20073;-63
2022/10/07 14:08:28;;;;;;;42.65;8.10;;;23.80;87.50;;;;;;5077901;28;20115;-63
2022/10/07 14:11:02;;;;;;;53.28;8.90;;;23.80;87.80;;;;;;5050270;28;20450;-64
2022/10/07 14:13:30;;;;;;;43.58;8.13;;;23.90;88.10;;;;;;5079327;28;20060;-64
2022/10/07 14:15:59;;;;;;;62.55;9.35;;;23.90;88.20;;;;;;5053229;28;20473;-61
2022/10/07 14:18:28;;;;;;;60.72;8.93;;;24.00;88.30;;;;;;5066080;28;20161;-64
2022/10/07 14:21:16;;;;;;;61.30;10.10;;;24.10;88.20;;;;;;5037396;28;20089;-65
2022/10/07 14:23:45;;;;;;;51.03;8.35;;;24.00;87.70;;;;;;5052503;28;20549;-66
2022/10/07 14:26:16;;;;;;;49.95;9.02;;;23.90;87.90;;;;;;5059389;28;20076;-63
2022/10/07 14:28:43;;;;;;;66.95;9.57;;;23.90;87.20;;;;;;5066836;28;20502;-64
2022/10/07 14:37:16;;;;;;;55.90;8.75;;;24.00;87.30;;;;;;5054925;28;20553;-64
2022/10/07 14:39:48;;;;;;;64.47;9.23;;;24.10;87.80;;;;;;5062888;28;20573;-63
2022/10/07 14:42:31;;;;;;;66.88;9.18;;;24.00;96.40;;;;;;5048735;28;20029;-64
2022/10/07 14:45:01;;;;;;;75.22;9.52;;;24.10;87.40;;;;;;5040227;28;20473;-65
2022/10/07 14:47:30;;;;;;;56.13;9.75;;;24.10;87.10;;;;;;5044920;28;20078;-63
2022/10/07 14:50:02;;;;;;;51.88;8.93;;;24.40;99.90;;;;;;5047159;28;20491;-62
2022/10/07 14:52:39;;;;;;;49.90;8.60;;;24.60;99.90;;;;;;5056007;28;20045;-63
2022/10/07 14:55:13;;;;;;;58.97;9.52;;;24.10;99.90;;;;;;5057379;28;20037;-62
2022/10/07 14:57:40;;;;;;;67.25;9.25;;;24.60;99.90;;;;;;5069933;28;20058;-63
2022/10/07 15:00:13;;;;;;;52.70;9.05;;;24.50;99.90;;;;;;5078168;28;20036;-61
2022/10/07 15:02:39;;;;;;;47.55;9.20;;;23.90;99.90;;;;;;5055317;28;20041;-61
2022/10/07 15:05:06;;;;;;;58.25;10.00;;;24.80;99.90;;;;;;5061924;28;20413;-63
2022/10/07 15:07:33;;;;;;;45.47;9.10;;;25.10;91.10;;;;;;5063043;28;20038;-64
2022/10/07 15:09:59;;;;;;;56.85;8.68;;;24.40;99.90;;;;;;5045459;28;20038;-64
2022/10/07 15:12:26;;;;;;;49.55;8.45;;;;;;;;;;5044339;28;20029;-63
2022/10/07 15:14:53;;;;;;;59.80;9.07;;;24.70;83.10;;;;;;5078236;28;20136;-63
2022/10/07 15:17:21;;;;;;;45.13;8.43;;;24.80;83.70;;;;;;5056212;28;20098;-65
2022/10/07 15:19:48;;;;;;;48.40;8.00;;;;;;;;;;5065738;28;20074;-62
2022/10/07 15:22:16;;;;;;;57.55;7.68;;;25.30;83.60;;;;;;5054584;28;20043;-62
2022/10/07 15:24:42;;;;;;;51.58;8.18;;;25.90;99.90;;;;;;5049226;28;20030;-62
2022/10/07 15:27:08;;;;;;;48.88;7.50;;;26.00;99.40;;;;;;5074646;28;20075;-62
2022/10/07 15:29:35;;;;;;;60.70;8.75;;;;;;;;;;5051142;28;20383;-62
2022/10/07 15:32:02;;;;;;;53.60;8.00;;;26.50;99.90;;;;;;5045328;28;20492;-64
2022/10/07 15:34:29;;;;;;;50.08;7.47;;;26.60;99.90;;;;;;5051094;28;20048;-64
2022/10/07 15:36:56;;;;;;;59.38;8.27;;;26.40;79.60;;;;;;5044499;28;20041;-61
2022/10/07 15:39:22;;;;;;;54.42;9.13;;;26.60;75.70;;;;;;5052346;28;20078;-62
2022/10/07 15:41:49;;;;;;;47.72;9.35;;;26.70;76.60;;;;;;5057884;28;20081;-62
2022/10/07 15:44:18;;;;;;;67.53;9.00;;;27.00;77.10;;;;;;5064610;28;20075;-63
2022/10/07 15:46:46;;;;;;;49.08;8.77;;;27.00;76.60;;;;;;5056848;28;20084;-64
2022/10/07 15:49:13;;;;;;;59.90;8.18;;;27.00;76.30;;;;;;5055925;28;20080;-64
2022/10/07 15:51:39;;;;;;;179.45;15.93;;;27.10;75.90;;;;;;5081138;28;20535;-62
2022/10/07 15:54:06;;;;;;;166.35;14.45;;;27.30;75.10;;;;;;5048379;28;20178;-62
2022/10/07 15:56:33;;;;;;;71.80;10.10;;;27.30;74.80;;;;;;5047884;28;20057;-64
2022/10/07 15:59:00;;;;;;;72.75;10.75;;;27.40;75.30;;;;;;5077345;28;20077;-63
2022/10/07 16:01:30;;;;;;;243.70;17.30;;;27.50;74.60;;;;;;5043091;28;20089;-61
2022/10/07 16:03:58;;;;;;;66.15;9.25;;;27.60;73.70;;;;;;5051490;28;20375;-60
2022/10/07 16:06:30;;;;;;;77.03;10.18;;;27.80;73.30;;;;;;5040837;28;20429;-63
2022/10/07 16:08:57;;;;;;;73.03;9.52;;;27.70;73.40;;;;;;5042024;28;20085;-63
2022/10/07 16:11:24;;;;;;;41.30;7.03;;;27.90;74.50;;;;;;5058597;28;20106;-64
2022/10/07 16:13:51;;;;;;;51.35;7.68;;;27.90;73.30;;;;;;5055838;28;20470;-61
2022/10/07 16:16:23;;;;;;;54.20;7.82;;;27.80;73.70;;;;;;5060542;28;20077;-63
2022/10/07 16:18:51;;;;;;;49.83;7.13;;;27.80;73.90;;;;;;5035196;28;20102;-63
2022/10/07 16:21:22;;;;;;;46.67;7.10;;;27.70;73.90;;;;;;5054734;28;20083;-63
2022/10/07 16:23:50;;;;;;;39.45;7.35;;;27.80;74.10;;;;;;5035795;28;20072;-63
2022/10/07 16:26:20;;;;;;;42.08;6.65;;;27.50;80.00;;;;;;5060976;28;20140;-62
2022/10/07 16:31:41;;;;;;;51.35;6.55;;;28.10;99.90;;;;;;5051248;28;20124;-63
2022/10/07 16:34:10;;;;;;;43.13;6.53;;;27.50;94.00;;;;;;5029365;28;20025;-62
2022/10/07 16:36:36;;;;;;;50.10;8.30;;;28.00;96.00;;;;;;5055062;28;20552;-62
2022/10/07 16:39:07;;;;;;;43.17;9.18;;;28.00;70.90;;;;;;5032987;28;20143;-64
2022/10/07 16:41:35;;;;;;;61.50;9.13;;;28.80;95.30;;;;;;5061369;28;20061;-64
2022/10/07 16:44:03;;;;;;;51.80;8.13;;;28.60;70.60;;;;;;5071301;28;20038;-63
2022/10/07 16:46:33;;;;;;;59.55;7.10;;;28.70;71.30;;;;;;5062898;28;20429;-62
2022/10/07 16:49:00;;;;;;;44.63;7.13;;;29.90;94.80;;;;;;5064454;28;20070;-64
2022/10/07 16:51:34;;;;;;;56.03;9.38;;;29.70;67.40;;;;;;5058753;28;20027;-63
2022/10/07 16:54:06;;;;;;;68.90;9.02;;;30.00;71.30;;;;;;5060271;28;20034;-63
2022/10/07 16:56:34;;;;;;;59.95;6.97;;;30.50;67.30;;;;;;5049537;28;20015;-62
2022/10/07 16:59:05;;;;;;;124.97;13.57;;;30.70;65.00;;;;;;5067552;28;20021;-62
2022/10/07 17:01:32;;;;;;;55.08;7.53;;;30.70;73.30;;;;;;5037766;28;21542;-65
2022/10/07 17:04:00;;;;;;;68.97;9.05;;;31.10;75.40;;;;;;5066163;28;20530;-64
2022/10/07 17:06:29;;;;;;;55.13;11.63;;;31.20;70.80;;;;;;5034593;28;20118;-61
2022/10/07 17:09:03;;;;;;;50.05;6.93;;;31.10;67.00;;;;;;5061986;28;20357;-67
2022/10/07 17:11:32;;;;;;;54.55;6.70;;;31.80;71.30;;;;;;5048442;28;20127;-63
2022/10/07 17:14:01;;;;;;;50.45;5.70;;;32.00;90.00;;;;;;5068943;28;20382;-65
2022/10/07 17:16:31;;;;;;;47.22;5.75;;;32.00;58.90;;;;;;5035640;28;20044;-62
2022/10/07 17:18:58;;;;;;;46.10;4.30;;;32.20;71.50;;;;;;5029993;28;20030;-63
2022/10/07 17:21:26;;;;;;;37.63;4.40;;;32.10;83.30;;;;;;5049883;28;20551;-64
2022/10/07 17:23:57;;;;;;;46.40;6.22;;;32.00;84.30;;;;;;5056406;28;20453;-64
2022/10/07 17:26:25;;;;;;;40.58;5.55;;;32.30;57.70;;;;;;5054939;28;20046;-64
2022/10/07 17:29:06;;;;;;;63.65;7.28;;;32.40;84.50;;;;;;5069113;27;20043;-62
2022/10/07 17:31:34;;;;;;;59.08;6.55;;;32.60;90.40;;;;;;5073032;28;20039;-60
2022/10/07 17:34:02;;;;;;;73.07;5.60;;;32.00;58.10;;;;;;5067778;28;20077;-64
2022/10/07 17:36:29;;;;;;;71.63;7.82;;;32.10;85.50;;;;;;5070158;28;20040;-62
2022/10/07 17:38:56;;;;;;;59.00;6.63;;;32.20;93.00;;;;;;5057952;28;20023;-61
2022/10/07 17:41:29;;;;;;;57.97;4.45;;;32.30;71.50;;;;;;5042772;28;20040;-63
2022/10/07 17:43:57;;;;;;;60.78;4.72;;;32.10;59.90;;;;;;5062138;27;20020;-62
2022/10/07 17:46:27;;;;;;;60.38;4.80;;;32.40;56.80;;;;;;5049064;28;20031;-63
2022/10/07 17:48:56;;;;;;;56.80;4.57;;;32.40;57.50;;;;;;5064865;28;20051;-62
2022/10/07 17:51:27;;;;;;;124.03;7.65;;;32.90;84.90;;;;;;5049498;28;20041;-65
2022/10/07 17:53:59;;;;;;;59.53;5.07;;;33.00;57.10;;;;;;5050014;27;20387;-65
2022/10/07 17:56:26;;;;;;;90.38;6.63;;;32.20;64.50;;;;;;5051885;28;20049;-60
2022/10/07 17:58:52;;;;;;;85.97;5.78;;;31.50;65.30;;;;;;5040059;28;20059;-61
2022/10/07 18:01:26;;;;;;;74.55;11.05;;;31.40;62.70;;;;;;5048708;28;20040;-60
2022/10/07 18:03:56;;;;;;;74.65;9.40;;;30.50;65.40;;;;;;5052528;28;20424;-61
2022/10/07 18:06:24;;;;;;;81.60;8.50;;;30.10;71.90;;;;;;5053814;28;20133;-61
2022/10/07 18:08:51;;;;;;;104.05;7.55;;;29.80;66.60;;;;;;5079027;28;20070;-61
2022/10/07 18:11:17;;;;;;;107.57;7.38;;;29.70;63.90;;;;;;5094997;28;20101;-64
2022/10/07 18:16:31;;;;;;;95.43;6.25;;;30.10;62.90;;;;;;5080437;28;20088;-61
2022/10/07 18:18:58;;;;;;;110.25;6.45;;;30.70;60.30;;;;;;5055341;28;20102;-62
2022/10/07 18:21:26;;;;;;;93.97;7.18;;;31.20;59.90;;;;;;5046047;28;20037;-64
2022/10/07 18:23:55;;;;;;;97.85;6.47;;;31.70;83.90;;;;;;5061184;28;20067;-64
2022/10/07 18:26:22;;;;;;;90.50;6.63;;;32.70;91.30;;;;;;5053160;28;20031;-61
2022/10/07 18:28:48;;;;;;;90.20;7.80;;;33.00;78.00;;;;;;5069440;28;20562;-63
2022/10/07 18:31:17;;;;;;;91.90;6.50;;;33.90;78.20;;;;;;5046947;28;20110;-61
2022/10/07 18:33:44;;;;;;;136.15;9.25;;;33.70;52.60;;;;;;5066812;28;20481;-62
2022/10/07 18:36:17;;;;;;;104.88;7.88;;;34.30;53.30;;;;;;5075931;28;20428;-62
2022/10/07 18:38:44;;;;;;;93.35;8.65;;;34.90;50.50;;;;;;5047212;28;20047;-62
2022/10/07 18:41:16;;;;;;;104.53;7.90;;;34.20;50.90;;;;;;5059803;28;20078;-63
2022/10/07 18:43:44;;;;;;;83.10;7.05;;;34.20;70.50;;;;;;5066506;28;20494;-63
2022/10/07 18:46:14;;;;;;;99.53;7.18;;;34.20;51.20;;;;;;5063592;27;20039;-64
2022/10/07 18:48:42;;;;;;;104.47;7.55;;;34.20;50.80;;;;;;5037077;28;20451;-63
2022/10/07 18:51:10;;;;;;;95.05;7.72;;;34.30;52.10;;;;;;5057161;27;20052;-63
2022/10/07 18:53:39;;;;;;;82.82;6.70;;;34.40;50.30;;;;;;5061693;28;20044;-66
2022/10/07 18:56:08;;;;;;;81.07;6.25;;;34.60;50.90;;;;;;5058570;28;20116;-62
2022/10/07 18:58:36;;;;;;;90.80;6.68;;;35.00;50.00;;;;;;5070963;28;20035;-61
2022/10/07 19:01:12;;;;;;;82.32;7.07;;;35.00;49.20;;;;;;5042595;28;20078;-64
2022/10/07 19:03:39;;;;;;;72.05;5.82;;;35.20;50.90;;;;;;5056704;28;20531;-62
2022/10/07 19:06:14;;;;;;;82.78;6.50;;;35.10;49.30;;;;;;5065092;28;20037;-62
2022/10/07 19:08:41;;;;;;;67.03;11.27;;;35.40;50.60;;;;;;5055844;28;20398;-62
2022/10/07 19:11:14;;;;;;;59.28;5.97;;;35.50;47.70;;;;;;5052261;28;20545;-64
2022/10/07 19:13:49;;;;;;;84.18;16.00;;;35.30;47.50;;;;;;5051058;28;20056;-62